TimeEST,TemperatureF,Dew PointF,Humidity,Sea Level PressureIn,VisibilityMPH,Wind Direction,Wind SpeedMPH,Gust SpeedMPH,PrecipitationIn,Events,Conditions,WindDirDegrees,DateUTC
12:54 AM,59.0,57.2,94,29.84,10.0,WNW,4.6,-,N/A,,Mostly Cloudy,300,2013-02-24 05:54:00
12:56 AM,59.0,57.0,93,29.84,10.0,WNW,4.6,-,N/A,,Mostly Cloudy,290,2013-02-24 05:56:00
1:41 AM,59.0,57.2,94,29.85,10.0,NNW,6.9,-,N/A,,Overcast,330,2013-02-24 06:41:00
1:56 AM,57.9,57.0,97,29.86,10.0,NW,6.9,-,N/A,,Overcast,320,2013-02-24 06:56:00
2:17 AM,55.4,53.6,94,29.88,1.8,NW,13.8,-,N/A,,Overcast,320,2013-02-24 07:17:00
2:24 AM,53.6,53.6,100,29.88,1.0,NNW,16.1,-,N/A,,Overcast,330,2013-02-24 07:24:00
2:30 AM,53.6,51.8,94,29.89,0.8,NNW,11.5,-,N/A,,Mist,330,2013-02-24 07:30:00
2:44 AM,53.6,51.8,94,29.88,1.0,NW,8.1,-,N/A,,Mist,320,2013-02-24 07:44:00
2:56 AM,53.1,51.1,93,29.89,1.2,NNW,12.7,-,N/A,,Overcast,330,2013-02-24 07:56:00
3:08 AM,51.8,51.8,100,29.89,2.0,NNW,8.1,-,N/A,,Overcast,330,2013-02-24 08:08:00
3:17 AM,51.8,51.8,100,29.89,4.0,NW,6.9,-,N/A,,Overcast,320,2013-02-24 08:17:00
3:32 AM,51.8,50.0,94,29.89,5.0,WNW,5.8,-,N/A,,Overcast,300,2013-02-24 08:32:00
3:56 AM,51.1,50.0,96,29.90,8.0,NW,8.1,-,N/A,,Overcast,320,2013-02-24 08:56:00
4:56 AM,51.1,48.9,92,29.91,10.0,NW,8.1,-,N/A,,Overcast,320,2013-02-24 09:56:00
5:19 AM,51.8,48.2,88,29.90,10.0,NW,5.8,-,N/A,,Overcast,310,2013-02-24 10:19:00
5:29 AM,50.0,48.2,94,29.91,10.0,NW,8.1,-,N/A,,Overcast,320,2013-02-24 10:29:00
5:56 AM,50.0,46.9,89,29.91,10.0,WNW,3.5,-,N/A,,Overcast,290,2013-02-24 10:56:00
6:22 AM,50.0,46.4,87,29.93,10.0,NW,6.9,-,N/A,,Overcast,310,2013-02-24 11:22:00
6:56 AM,48.9,46.0,90,29.93,10.0,WNW,4.6,-,N/A,,Mostly Cloudy,300,2013-02-24 11:56:00
7:56 AM,48.9,46.0,90,29.96,10.0,NW,6.9,-,N/A,,Overcast,310,2013-02-24 12:56:00
8:53 AM,50.0,46.4,87,29.98,10.0,NW,6.9,-,N/A,,Overcast,320,2013-02-24 13:53:00
8:56 AM,50.0,46.0,86,29.98,10.0,NW,6.9,-,N/A,,Overcast,310,2013-02-24 13:56:00
9:41 AM,51.8,46.4,82,29.99,10.0,NNW,10.4,-,N/A,,Scattered Clouds,340,2013-02-24 14:41:00
9:56 AM,53.1,46.9,80,29.99,10.0,NNW,9.2,-,N/A,,Clear,340,2013-02-24 14:56:00
10:56 AM,55.9,46.0,69,30.00,10.0,North,6.9,-,N/A,,Clear,350,2013-02-24 15:56:00
11:56 AM,60.1,46.9,62,30.00,10.0,NW,6.9,-,N/A,,Clear,320,2013-02-24 16:56:00
12:56 PM,64.9,46.0,50,29.98,10.0,NNW,4.6,-,N/A,,Clear,330,2013-02-24 17:56:00
1:56 PM,68.0,41.0,37,29.96,10.0,NW,5.8,-,N/A,,Clear,310,2013-02-24 18:56:00
2:56 PM,69.1,39.9,35,29.95,10.0,NW,8.1,-,N/A,,Clear,320,2013-02-24 19:56:00
3:56 PM,70.0,41.0,35,29.94,10.0,WNW,4.6,-,N/A,,Clear,300,2013-02-24 20:56:00
4:56 PM,70.0,37.0,30,29.94,10.0,NW,3.5,-,N/A,,Clear,320,2013-02-24 21:56:00
5:56 PM,64.9,42.1,43,29.95,10.0,Calm,Calm,-,N/A,,Clear,0,2013-02-24 22:56:00
6:56 PM,59.0,50.0,72,29.97,10.0,South,4.6,-,N/A,,Clear,170,2013-02-24 23:56:00
7:56 PM,57.0,50.0,77,29.99,10.0,Calm,Calm,-,N/A,,Clear,0,2013-02-25 00:56:00
8:56 PM,55.0,48.9,80,30.00,10.0,Calm,Calm,-,N/A,,Clear,0,2013-02-25 01:56:00
9:56 PM,54.0,48.9,83,30.01,10.0,Calm,Calm,-,N/A,,Clear,0,2013-02-25 02:56:00
10:56 PM,52.0,48.9,89,30.00,10.0,Calm,Calm,-,N/A,,Clear,0,2013-02-25 03:56:00
11:56 PM,52.0,48.0,86,30.00,10.0,Calm,Calm,-,N/A,,Clear,0,2013-02-25 04:56:00